Time;durP1;ratioP1;P1;durP2;ratioP2;P2;SDS_P1;SDS_P2;PMS_P1;PMS_P2;Temp;Humidity;BMP_temperature;BMP_pressure;BME280_temperature;BME280_humidity;BME280_pressure;Samples;Min_cycle;Max_cycle;Signal;HPM_P1;HPM_P2
2024/02/27 00:02:03;;;;;;;18.15;13.40;;;5.60;99.90;;;;;;5054374;28;20039;-85
2024/02/27 00:04:29;;;;;;;18.38;12.98;;;5.60;99.90;;;;;;5038392;28;20457;-84
2024/02/27 00:06:55;;;;;;;18.67;14.65;;;5.60;99.90;;;;;;5055141;28;20576;-85
2024/02/27 00:09:22;;;;;;;19.38;14.15;;;5.60;99.90;;;;;;5055151;28;20060;-85
2024/02/27 00:11:50;;;;;;;19.00;14.32;;;5.60;99.90;;;;;;5055054;28;20029;-84
2024/02/27 00:14:16;;;;;;;19.13;14.05;;;5.50;99.90;;;;;;5054821;28;20025;-85
2024/02/27 00:16:42;;;;;;;20.35;15.43;;;5.40;99.90;;;;;;5054969;28;20052;-84
2024/02/27 00:19:08;;;;;;;21.88;16.23;;;5.40;99.90;;;;;;5055476;28;20044;-85
2024/02/27 00:21:33;;;;;;;19.23;15.18;;;5.40;99.90;;;;;;5054976;28;20032;-85
2024/02/27 00:23:59;;;;;;;21.65;15.63;;;5.40;99.90;;;;;;5055653;28;20381;-85
2024/02/27 00:26:25;;;;;;;21.90;15.15;;;5.30;99.90;;;;;;5056089;28;20447;-85
2024/02/27 00:28:51;;;;;;;19.98;14.70;;;5.30;99.90;;;;;;5069923;28;20021;-84
2024/02/27 00:31:16;;;;;;;21.48;15.20;;;5.30;99.90;;;;;;5078956;28;20013;-83
2024/02/27 00:33:42;;;;;;;20.30;14.35;;;5.40;99.90;;;;;;5079765;28;20013;-84
2024/02/27 00:36:08;;;;;;;20.67;15.45;;;5.30;99.90;;;;;;5074132;28;20021;-85
2024/02/27 00:38:34;;;;;;;19.98;14.60;;;5.30;99.90;;;;;;5055270;28;20045;-84
2024/02/27 00:41:03;;;;;;;19.52;14.68;;;5.40;99.90;;;;;;5055172;28;20063;-85
2024/02/27 00:43:32;;;;;;;19.92;13.98;;;5.30;99.90;;;;;;5054556;28;20131;-85
2024/02/27 00:45:58;;;;;;;21.17;15.75;;;5.40;99.90;;;;;;5056074;28;20384;-84
2024/02/27 00:48:23;;;;;;;21.92;15.52;;;5.40;99.90;;;;;;5054593;28;20025;-85
2024/02/27 00:50:49;;;;;;;20.00;15.15;;;5.40;99.90;;;;;;5054648;28;20029;-85
2024/02/27 00:53:16;;;;;;;20.77;15.15;;;5.30;99.90;;;;;;5054693;28;20029;-85
2024/02/27 00:55:42;;;;;;;19.02;13.93;;;5.30;99.90;;;;;;5054428;28;20033;-85
2024/02/27 00:58:10;;;;;;;19.90;15.23;;;5.30;99.90;;;;;;5054654;28;20386;-85
2024/02/27 01:00:36;;;;;;;18.88;14.30;;;5.30;99.90;;;;;;5054422;28;20120;-85
2024/02/27 01:03:02;;;;;;;21.92;15.35;;;5.30;99.90;;;;;;5037827;28;20053;-84
2024/02/27 01:05:28;;;;;;;20.00;14.63;;;5.30;99.90;;;;;;5054439;28;20104;-86
2024/02/27 01:07:54;;;;;;;22.73;15.80;;;5.20;99.90;;;;;;5055190;28;20056;-85
2024/02/27 01:10:20;;;;;;;21.35;15.20;;;5.20;99.90;;;;;;5054172;28;20392;-85
2024/02/27 01:12:45;;;;;;;23.00;15.60;;;5.20;99.90;;;;;;5037365;28;20487;-86
2024/02/27 01:15:11;;;;;;;19.40;14.18;;;5.20;99.90;;;;;;5037153;28;20386;-86
2024/02/27 01:17:36;;;;;;;20.60;15.05;;;5.20;99.90;;;;;;5037694;28;20025;-86
2024/02/27 01:20:03;;;;;;;20.50;15.15;;;5.20;99.90;;;;;;5053762;28;20075;-85
2024/02/27 01:22:30;;;;;;;22.13;15.63;;;5.20;99.90;;;;;;5053863;28;20025;-84
2024/02/27 01:24:56;;;;;;;23.95;15.98;;;5.20;99.90;;;;;;5053865;28;20031;-84
2024/02/27 01:27:23;;;;;;;21.60;15.55;;;5.20;99.90;;;;;;5053520;28;20118;-84
2024/02/27 01:29:50;;;;;;;22.13;15.48;;;5.20;99.90;;;;;;5053326;28;20083;-84
2024/02/27 01:32:16;;;;;;;22.20;15.43;;;5.20;99.90;;;;;;5053670;28;20024;-85
2024/02/27 01:34:45;;;;;;;20.80;15.13;;;5.20;99.90;;;;;;5053362;28;20028;-85
2024/02/27 01:37:11;;;;;;;22.20;14.77;;;5.20;99.90;;;;;;5053629;28;20025;-85
2024/02/27 01:39:37;;;;;;;20.80;15.60;;;5.20;99.90;;;;;;5053399;28;20029;-82
2024/02/27 01:42:02;;;;;;;22.27;16.20;;;5.20;99.90;;;;;;5052919;28;20361;-85
2024/02/27 01:44:28;;;;;;;23.58;15.63;;;5.20;99.90;;;;;;5053631;28;20433;-84
2024/02/27 01:46:55;;;;;;;20.33;14.35;;;5.20;99.90;;;;;;5054030;28;20095;-85
2024/02/27 01:49:21;;;;;;;23.88;16.15;;;5.10;99.90;;;;;;5064919;28;20025;-83
2024/02/27 01:51:48;;;;;;;19.20;14.55;;;5.10;99.90;;;;;;5077584;28;20016;-83
2024/02/27 01:54:19;;;;;;;20.73;14.27;;;5.10;99.90;;;;;;5078513;28;20064;-84
2024/02/27 01:56:46;;;;;;;21.17;15.00;;;5.20;99.90;;;;;;5077761;28;20047;-83
2024/02/27 01:59:12;;;;;;;20.23;14.75;;;5.20;99.90;;;;;;5057865;28;20063;-85
2024/02/27 02:01:39;;;;;;;20.67;14.77;;;5.10;99.90;;;;;;5057923;28;20036;-85
2024/02/27 02:04:08;;;;;;;20.70;15.40;;;5.10;99.90;;;;;;5056458;28;20033;-85
2024/02/27 02:06:36;;;;;;;22.55;15.35;;;5.10;99.90;;;;;;5053968;28;20040;-85
2024/02/27 02:09:01;;;;;;;20.05;15.25;;;5.10;99.90;;;;;;5053522;28;20491;-85
2024/02/27 02:11:30;;;;;;;23.92;16.80;;;5.00;99.90;;;;;;5053094;28;20033;-85
2024/02/27 02:13:56;;;;;;;21.30;15.23;;;4.90;99.90;;;;;;5052787;28;20032;-85
2024/02/27 02:16:22;;;;;;;22.88;15.63;;;4.90;99.90;;;;;;5035806;28;20060;-85
2024/02/27 02:18:48;;;;;;;24.92;17.05;;;4.90;99.90;;;;;;5052942;28;20373;-84
2024/02/27 02:21:14;;;;;;;22.13;15.30;;;4.80;99.90;;;;;;5052809;28;20056;-84
2024/02/27 02:23:43;;;;;;;24.92;16.58;;;4.80;99.90;;;;;;5052728;28;20036;-84
2024/02/27 02:26:09;;;;;;;23.33;16.45;;;4.80;99.90;;;;;;5052260;28;20393;-85
2024/02/27 02:28:34;;;;;;;24.10;16.13;;;4.80;99.90;;;;;;5052737;28;20045;-85
2024/02/27 02:31:00;;;;;;;23.00;15.57;;;4.80;99.90;;;;;;5052815;28;20033;-85
2024/02/27 02:33:27;;;;;;;20.95;14.93;;;4.80;99.90;;;;;;5052781;28;20033;-83
2024/02/27 02:35:53;;;;;;;23.60;16.15;;;4.80;99.90;;;;;;5051929;28;20033;-85
2024/02/27 02:38:18;;;;;;;21.52;15.65;;;4.70;99.90;;;;;;5052733;28;20167;-85
2024/02/27 02:40:44;;;;;;;20.42;14.52;;;4.70;99.90;;;;;;5052832;28;20036;-83
2024/02/27 02:43:10;;;;;;;23.85;15.90;;;4.60;99.90;;;;;;5052919;28;20021;-85
2024/02/27 02:45:35;;;;;;;24.05;16.58;;;4.60;99.90;;;;;;5052894;28;20040;-86
2024/02/27 02:48:01;;;;;;;21.98;14.90;;;4.60;99.90;;;;;;5052616;28;20381;-84
2024/02/27 02:50:30;;;;;;;21.02;14.82;;;4.60;99.90;;;;;;5052653;28;20465;-85
2024/02/27 02:52:58;;;;;;;21.95;15.40;;;4.60;99.90;;;;;;5052850;28;20021;-85
2024/02/27 02:55:25;;;;;;;22.00;15.75;;;4.50;99.90;;;;;;5053616;28;20033;-85
2024/02/27 02:57:51;;;;;;;22.67;15.07;;;4.50;99.90;;;;;;5055710;28;20064;-83
2024/02/27 03:00:17;;;;;;;22.92;15.88;;;4.50;99.90;;;;;;5057909;28;20029;-85
2024/02/27 03:02:43;;;;;;;23.13;15.60;;;4.50;99.90;;;;;;5056131;28;20056;-84
2024/02/27 03:05:12;;;;;;;23.55;16.38;;;4.50;99.90;;;;;;5056336;28;20025;-84
2024/02/27 03:07:38;;;;;;;23.75;15.88;;;4.40;99.90;;;;;;5064299;28;20056;-85
2024/02/27 03:10:04;;;;;;;24.40;16.13;;;4.40;99.90;;;;;;5075104;28;20048;-85
2024/02/27 03:12:30;;;;;;;19.55;13.45;;;4.40;99.90;;;;;;5077658;28;20047;-84
2024/02/27 03:14:56;;;;;;;19.05;13.77;;;4.30;99.90;;;;;;5076492;28;20029;-84
2024/02/27 03:17:22;;;;;;;22.40;14.25;;;4.40;99.90;;;;;;5068811;28;20036;-85
2024/02/27 03:19:50;;;;;;;20.25;13.25;;;4.40;99.90;;;;;;5052981;28;20025;-85
2024/02/27 03:22:16;;;;;;;20.50;13.38;;;4.40;99.90;;;;;;5052766;28;20036;-85
2024/02/27 03:24:44;;;;;;;23.45;15.35;;;4.40;99.90;;;;;;5052840;28;20021;-85
2024/02/27 03:27:10;;;;;;;19.60;13.35;;;4.40;99.90;;;;;;5052415;28;20033;-84
2024/02/27 03:29:36;;;;;;;19.95;12.90;;;4.30;99.90;;;;;;5052685;28;20040;-84
2024/02/27 03:32:01;;;;;;;21.08;14.75;;;4.30;99.90;;;;;;5052231;28;20029;-85
2024/02/27 03:34:27;;;;;;;20.73;14.32;;;4.40;99.90;;;;;;5053577;28;20487;-85
2024/02/27 03:36:53;;;;;;;19.65;13.50;;;4.30;99.90;;;;;;5051866;28;20452;-85
2024/02/27 03:39:20;;;;;;;22.30;14.63;;;4.30;99.90;;;;;;5055982;28;20385;-85
2024/02/27 03:41:45;;;;;;;18.80;13.68;;;4.30;99.90;;;;;;5055701;28;20017;-85
2024/02/27 03:44:11;;;;;;;22.23;14.57;;;4.30;99.90;;;;;;5055770;28;20022;-85
2024/02/27 03:46:37;;;;;;;20.63;13.40;;;4.30;99.90;;;;;;5056156;28;20048;-84
2024/02/27 03:49:02;;;;;;;19.65;14.00;;;4.30;99.90;;;;;;5055693;28;20396;-85
2024/02/27 03:51:28;;;;;;;20.73;12.73;;;4.30;99.90;;;;;;5055869;28;20021;-85
2024/02/27 03:53:54;;;;;;;22.95;14.45;;;4.30;99.90;;;;;;5039113;28;20549;-85
2024/02/27 03:56:19;;;;;;;24.23;15.52;;;4.30;99.90;;;;;;5055680;28;20052;-85
2024/02/27 03:58:46;;;;;;;19.42;13.25;;;4.30;99.90;;;;;;5038889;28;20033;-86
2024/02/27 04:01:18;;;;;;;20.92;14.98;;;4.20;99.90;;;;;;5055641;28;20025;-85
2024/02/27 04:03:44;;;;;;;23.30;14.52;;;4.20;99.90;;;;;;5055029;28;20480;-85
2024/02/27 04:06:13;;;;;;;19.88;13.85;;;4.10;99.90;;;;;;5055715;28;20036;-85
2024/02/27 04:08:39;;;;;;;20.45;13.38;;;4.10;99.90;;;;;;5054332;28;20029;-85
2024/02/27 04:11:05;;;;;;;21.23;14.77;;;4.10;99.90;;;;;;5055292;28;20087;-84
2024/02/27 04:13:30;;;;;;;21.33;14.55;;;4.10;99.90;;;;;;5055685;28;20358;-85
2024/02/27 04:15:56;;;;;;;22.38;14.43;;;4.10;99.90;;;;;;5055228;28;20056;-83
2024/02/27 04:18:22;;;;;;;19.42;13.27;;;4.10;99.90;;;;;;5055300;28;20025;-85
2024/02/27 04:20:48;;;;;;;20.35;13.88;;;4.10;99.90;;;;;;5056729;28;20040;-84
2024/02/27 04:23:13;;;;;;;20.10;15.05;;;4.10;99.90;;;;;;5058088;28;20159;-85
2024/02/27 04:25:39;;;;;;;24.70;15.07;;;4.10;99.90;;;;;;5061599;28;20030;-85
2024/02/27 04:28:05;;;;;;;22.00;14.45;;;4.10;99.90;;;;;;5071578;28;20013;-85
2024/02/27 04:30:34;;;;;;;21.92;14.50;;;4.10;99.90;;;;;;5079924;28;20028;-85
2024/02/27 04:33:00;;;;;;;22.67;15.35;;;4.20;99.90;;;;;;5079034;28;20020;-84
2024/02/27 04:35:26;;;;;;;23.77;15.85;;;4.10;99.90;;;;;;5079546;28;20027;-85
2024/02/27 04:37:52;;;;;;;22.85;14.90;;;4.10;99.90;;;;;;5066786;28;20025;-85
2024/02/27 04:40:18;;;;;;;23.17;16.63;;;4.10;99.90;;;;;;5040357;28;20075;-86
2024/02/27 04:42:43;;;;;;;24.98;15.82;;;4.10;99.90;;;;;;5055759;28;20477;-86
2024/02/27 04:45:09;;;;;;;23.33;15.40;;;4.10;99.90;;;;;;5056570;28;20029;-84
2024/02/27 04:47:35;;;;;;;21.85;14.52;;;4.00;99.90;;;;;;5060489;28;20053;-84
2024/02/27 04:50:00;;;;;;;24.27;15.98;;;4.10;99.90;;;;;;5063364;28;20052;-85
2024/02/27 04:52:28;;;;;;;23.75;16.25;;;4.10;99.90;;;;;;5057946;28;20171;-85
2024/02/27 04:54:53;;;;;;;23.50;15.98;;;4.00;99.90;;;;;;5055941;28;20470;-85
2024/02/27 04:57:20;;;;;;;25.90;16.42;;;4.00;99.90;;;;;;5054446;28;20054;-85
2024/02/27 04:59:47;;;;;;;21.55;14.52;;;4.00;99.90;;;;;;5054240;28;20162;-84
2024/02/27 05:02:15;;;;;;;25.48;16.55;;;4.00;99.90;;;;;;5055635;28;20111;-84
2024/02/27 05:04:40;;;;;;;23.70;15.98;;;4.00;99.90;;;;;;5054452;28;20029;-85
2024/02/27 05:07:09;;;;;;;22.10;14.65;;;4.00;99.90;;;;;;5055700;28;20079;-84
2024/02/27 05:09:34;;;;;;;26.15;16.80;;;3.90;99.90;;;;;;5037766;28;20087;-85
2024/02/27 05:12:00;;;;;;;26.23;16.83;;;3.90;99.90;;;;;;5037647;28;20029;-86
2024/02/27 05:14:25;;;;;;;25.05;16.83;;;3.90;99.90;;;;;;5053859;28;20029;-85
2024/02/27 05:16:52;;;;;;;26.05;17.00;;;3.90;99.90;;;;;;5054366;28;20377;-85
2024/02/27 05:19:18;;;;;;;24.30;15.68;;;3.90;99.90;;;;;;5054009;28;20032;-85
2024/02/27 05:21:44;;;;;;;23.73;16.05;;;3.90;99.90;;;;;;5054108;28;20021;-85
2024/02/27 05:24:09;;;;;;;25.45;16.50;;;3.90;99.90;;;;;;5053870;28;20025;-86
2024/02/27 05:26:36;;;;;;;25.90;16.13;;;3.90;99.90;;;;;;5054107;28;20029;-85
2024/02/27 05:29:22;;;;;;;24.73;16.75;;;3.90;99.90;;;;;;5050365;28;20069;-85
2024/02/27 05:31:48;;;;;;;25.15;16.50;;;3.90;99.90;;;;;;5035958;28;20029;-84
2024/02/27 05:34:13;;;;;;;23.13;15.80;;;3.90;99.90;;;;;;5053464;28;20035;-84
2024/02/27 05:36:39;;;;;;;24.08;16.48;;;3.90;99.90;;;;;;5053949;28;20032;-84
2024/02/27 05:39:05;;;;;;;25.80;15.70;;;3.90;99.90;;;;;;5053759;28;20033;-81
2024/02/27 05:41:31;;;;;;;26.08;16.60;;;3.80;99.90;;;;;;5053303;28;20124;-84
2024/02/27 05:43:56;;;;;;;24.88;15.32;;;3.80;99.90;;;;;;5054091;28;20025;-89
2024/02/27 05:46:22;;;;;;;23.88;15.52;;;3.80;99.90;;;;;;5055385;28;20116;-87
2024/02/27 05:48:48;;;;;;;22.58;16.00;;;3.90;99.90;;;;;;5069331;28;20025;-88
2024/02/27 05:51:13;;;;;;;25.42;15.50;;;3.80;99.90;;;;;;5077490;28;20013;-83
2024/02/27 05:53:39;;;;;;;24.02;15.02;;;3.90;99.90;;;;;;5078148;28;20036;-87
2024/02/27 05:56:05;;;;;;;23.35;15.50;;;3.80;99.90;;;;;;5070322;28;20037;-88
2024/02/27 05:58:31;;;;;;;24.15;15.13;;;3.90;99.90;;;;;;5054418;28;20115;-87
2024/02/27 06:00:57;;;;;;;23.67;16.10;;;3.90;99.90;;;;;;5053270;28;20063;-86
2024/02/27 06:03:25;;;;;;;25.95;16.63;;;3.90;99.90;;;;;;5054612;28;20033;-85
2024/02/27 06:05:51;;;;;;;23.88;16.05;;;3.80;99.90;;;;;;5053353;28;20025;-87
2024/02/27 06:08:17;;;;;;;25.42;16.83;;;3.80;99.90;;;;;;5053683;28;20078;-86
2024/02/27 06:10:44;;;;;;;27.80;17.60;;;3.70;99.90;;;;;;5053959;28;20029;-87
2024/02/27 06:13:10;;;;;;;23.83;15.32;;;3.70;99.90;;;;;;5054834;28;20043;-84
2024/02/27 06:15:36;;;;;;;23.30;15.75;;;3.70;99.90;;;;;;5053195;28;20051;-86
2024/02/27 06:18:02;;;;;;;20.50;14.38;;;3.70;99.90;;;;;;5052852;28;20028;-87
2024/02/27 06:23:13;;;;;;;20.60;14.23;;;3.80;99.90;;;;;;5054471;28;20040;-87
2024/02/27 06:25:38;;;;;;;25.48;15.85;;;3.80;99.90;;;;;;5053576;28;20029;-87
2024/02/27 06:28:04;;;;;;;22.23;15.15;;;3.80;99.90;;;;;;5053422;28;20033;-87
2024/02/27 06:30:30;;;;;;;22.50;15.70;;;3.80;99.90;;;;;;5053579;28;20449;-86
2024/02/27 06:32:56;;;;;;;22.85;15.25;;;3.80;99.90;;;;;;5052866;28;20116;-87
2024/02/27 06:35:22;;;;;;;21.23;14.63;;;3.80;99.90;;;;;;5052846;28;20029;-88
2024/02/27 06:37:50;;;;;;;22.88;14.85;;;3.80;99.90;;;;;;5053184;28;20036;-88
2024/02/27 06:40:16;;;;;;;20.77;14.18;;;3.80;99.90;;;;;;5052924;28;20345;-86
2024/02/27 06:42:43;;;;;;;22.23;15.38;;;3.80;99.90;;;;;;5052769;28;20029;-87
2024/02/27 06:45:10;;;;;;;22.83;15.80;;;3.80;99.90;;;;;;5054266;28;20021;-87
2024/02/27 06:47:41;;;;;;;24.88;16.38;;;3.80;99.90;;;;;;5053643;28;20036;-88
2024/02/27 06:50:09;;;;;;;23.70;15.80;;;3.80;99.90;;;;;;5053496;28;20032;-87
2024/02/27 06:52:35;;;;;;;20.58;14.35;;;3.80;99.90;;;;;;5053321;28;20029;-88
2024/02/27 06:55:01;;;;;;;20.58;13.85;;;3.80;99.90;;;;;;5053638;28;20035;-87
2024/02/27 06:57:30;;;;;;;22.50;15.10;;;3.90;99.90;;;;;;5037188;28;20376;-88
2024/02/27 06:59:55;;;;;;;23.63;15.90;;;3.90;99.90;;;;;;5053439;28;20033;-87
2024/02/27 07:02:21;;;;;;;22.80;15.63;;;3.80;99.90;;;;;;5056209;28;20056;-89
2024/02/27 07:04:47;;;;;;;20.08;14.25;;;3.90;99.90;;;;;;5067158;28;20053;-87
2024/02/27 07:07:13;;;;;;;26.38;16.30;;;3.90;99.90;;;;;;5075121;28;20029;-88
2024/02/27 07:09:38;;;;;;;22.63;15.20;;;3.90;99.90;;;;;;5059347;28;20051;-87
2024/02/27 07:12:04;;;;;;;23.23;15.80;;;3.90;99.90;;;;;;5069296;28;20044;-86
2024/02/27 07:14:33;;;;;;;23.00;15.05;;;3.90;99.90;;;;;;5063717;28;20453;-87
2024/02/27 07:16:59;;;;;;;26.58;15.40;;;3.90;99.90;;;;;;5063701;28;20457;-87
2024/02/27 07:19:25;;;;;;;23.75;16.05;;;3.90;99.90;;;;;;5067254;28;20040;-88
2024/02/27 07:21:51;;;;;;;22.35;14.98;;;3.90;99.90;;;;;;5061605;28;20044;-87
2024/02/27 07:24:18;;;;;;;22.45;14.30;;;3.80;99.90;;;;;;5061783;28;20033;-87
2024/02/27 07:26:44;;;;;;;23.52;15.93;;;3.80;99.90;;;;;;5063778;28;20429;-88
2024/02/27 07:29:11;;;;;;;23.92;15.57;;;3.80;99.90;;;;;;5066688;28;20044;-87
2024/02/27 07:31:37;;;;;;;20.77;13.73;;;3.90;99.90;;;;;;5066928;28;20041;-84
2024/02/27 07:34:06;;;;;;;23.00;15.40;;;3.90;99.90;;;;;;5068799;28;20025;-88
2024/02/27 07:36:31;;;;;;;22.20;14.65;;;4.00;99.90;;;;;;5068153;28;20029;-87
2024/02/27 07:39:00;;;;;;;20.20;13.45;;;3.90;99.90;;;;;;5067915;28;20037;-88
2024/02/27 07:41:25;;;;;;;23.67;14.68;;;4.00;99.90;;;;;;5066860;28;20051;-87
2024/02/27 07:43:53;;;;;;;21.50;14.00;;;4.00;99.90;;;;;;5061767;28;20025;-85
2024/02/27 07:46:18;;;;;;;23.02;15.15;;;4.00;99.90;;;;;;5062156;28;20035;-87
2024/02/27 07:48:47;;;;;;;21.88;15.13;;;4.00;99.90;;;;;;5040273;28;20037;-87
2024/02/27 07:51:30;;;;;;;20.08;14.40;;;4.00;99.90;;;;;;5057388;28;20060;-87
2024/02/27 07:53:56;;;;;;;24.00;15.07;;;4.10;99.90;;;;;;5056795;28;20457;-87
2024/02/27 07:56:22;;;;;;;21.60;14.43;;;4.00;99.90;;;;;;5056362;28;20080;-87
2024/02/27 07:58:47;;;;;;;20.83;14.02;;;4.10;99.90;;;;;;5056799;28;20056;-86
2024/02/27 08:01:13;;;;;;;18.30;13.18;;;4.00;99.90;;;;;;5056361;28;20032;-86
2024/02/27 08:03:39;;;;;;;19.13;13.18;;;4.10;99.90;;;;;;5057506;28;20155;-86
2024/02/27 08:06:07;;;;;;;20.65;12.90;;;4.20;99.90;;;;;;5039737;28;20040;-87
2024/02/27 08:08:33;;;;;;;19.67;13.30;;;4.20;99.90;;;;;;5056310;28;20029;-87
2024/02/27 08:11:06;;;;;;;19.55;13.60;;;4.20;99.90;;;;;;5055738;28;20036;-87
2024/02/27 08:13:31;;;;;;;20.92;13.90;;;4.10;99.90;;;;;;5056819;28;20018;-87
2024/02/27 08:16:00;;;;;;;19.35;13.45;;;4.20;99.90;;;;;;5055976;28;20111;-87
2024/02/27 08:18:25;;;;;;;23.55;14.07;;;4.20;99.90;;;;;;5056092;28;20422;-87
2024/02/27 08:20:52;;;;;;;17.83;12.70;;;4.20;99.90;;;;;;5040758;28;20066;-88
2024/02/27 08:23:19;;;;;;;18.33;12.60;;;4.20;99.90;;;;;;5062337;28;20020;-87
2024/02/27 08:25:45;;;;;;;19.88;13.88;;;4.30;99.90;;;;;;5074675;28;20021;-87
2024/02/27 08:28:11;;;;;;;20.10;13.10;;;4.30;99.90;;;;;;5079292;28;20029;-88
2024/02/27 08:30:36;;;;;;;19.80;13.05;;;4.40;99.90;;;;;;5079000;28;20037;-87
2024/02/27 08:33:03;;;;;;;16.95;12.25;;;4.50;99.90;;;;;;5074551;28;20036;-87
2024/02/27 08:35:29;;;;;;;17.48;12.30;;;4.50;99.90;;;;;;5056257;28;20380;-88
2024/02/27 08:37:55;;;;;;;20.50;14.93;;;4.60;99.90;;;;;;5055811;28;20029;-87
2024/02/27 08:40:21;;;;;;;22.20;13.18;;;4.60;99.90;;;;;;5056903;28;20025;-87
2024/02/27 08:42:47;;;;;;;20.23;13.77;;;4.60;99.90;;;;;;5055467;28;20032;-89
2024/02/27 08:45:12;;;;;;;19.45;13.20;;;4.60;99.90;;;;;;5055404;28;20106;-88
2024/02/27 08:47:40;;;;;;;17.77;12.00;;;4.60;99.90;;;;;;5055237;28;20025;-88
2024/02/27 08:50:06;;;;;;;18.60;11.80;;;4.60;99.90;;;;;;5055763;28;20607;-87
2024/02/27 08:52:32;;;;;;;19.05;13.02;;;4.60;99.90;;;;;;5055343;28;20029;-87
2024/02/27 08:54:58;;;;;;;20.98;14.65;;;4.60;99.90;;;;;;5056267;28;20440;-87
2024/02/27 08:57:24;;;;;;;21.15;14.52;;;4.50;99.90;;;;;;5056377;28;20029;-88
2024/02/27 08:59:50;;;;;;;19.67;13.80;;;4.50;99.90;;;;;;5055526;28;20039;-87
2024/02/27 09:02:16;;;;;;;19.50;14.18;;;4.50;99.90;;;;;;5055630;28;20053;-88
2024/02/27 09:04:42;;;;;;;18.67;13.68;;;4.60;99.90;;;;;;5054784;28;20025;-88
2024/02/27 09:07:10;;;;;;;19.10;13.48;;;4.60;99.90;;;;;;5055290;28;20033;-87
2024/02/27 09:09:36;;;;;;;19.13;13.38;;;4.70;99.90;;;;;;5055250;28;20037;-87
2024/02/27 09:12:05;;;;;;;17.92;12.45;;;4.60;99.90;;;;;;5056745;28;20029;-87
2024/02/27 09:14:34;;;;;;;17.85;12.68;;;4.70;99.90;;;;;;5055072;28;20202;-87
2024/02/27 09:16:59;;;;;;;19.27;13.88;;;4.80;99.90;;;;;;5055107;28;20025;-88
2024/02/27 09:19:26;;;;;;;19.35;14.23;;;4.90;99.90;;;;;;5055106;28;20452;-87
2024/02/27 09:21:52;;;;;;;21.05;14.10;;;4.90;99.90;;;;;;5038136;28;20477;-87
2024/02/27 09:24:18;;;;;;;21.58;14.32;;;5.00;99.90;;;;;;5053920;28;20086;-88
2024/02/27 09:26:44;;;;;;;20.98;13.48;;;5.00;99.90;;;;;;5054627;28;20029;-87
2024/02/27 09:29:09;;;;;;;20.83;13.55;;;5.00;99.90;;;;;;5054650;28;20033;-87
2024/02/27 09:31:35;;;;;;;21.05;14.35;;;5.00;99.90;;;;;;5055373;28;20035;-86
2024/02/27 09:34:01;;;;;;;19.58;13.40;;;5.00;99.90;;;;;;5055870;28;20082;-87
2024/02/27 09:36:27;;;;;;;17.27;13.10;;;5.00;99.90;;;;;;5038766;28;20032;-87
2024/02/27 09:38:53;;;;;;;19.85;14.48;;;5.10;99.90;;;;;;5056887;28;20622;-87
2024/02/27 09:41:24;;;;;;;18.70;14.23;;;5.10;99.90;;;;;;5067431;28;20492;-86
2024/02/27 09:43:53;;;;;;;18.98;13.18;;;5.10;99.90;;;;;;5072693;28;20059;-87
2024/02/27 09:46:22;;;;;;;20.38;15.48;;;5.10;99.90;;;;;;5074656;28;20028;-87
2024/02/27 09:48:50;;;;;;;19.52;14.60;;;5.20;99.90;;;;;;5076626;28;20021;-88
2024/02/27 09:51:18;;;;;;;19.70;14.20;;;5.20;99.90;;;;;;5071598;28;20028;-86
2024/02/27 09:53:46;;;;;;;19.38;13.75;;;5.20;99.90;;;;;;5068437;28;20101;-88
2024/02/27 09:56:15;;;;;;;19.92;14.05;;;5.30;99.90;;;;;;5054683;28;20029;-86
2024/02/27 09:58:43;;;;;;;20.05;14.30;;;5.40;99.90;;;;;;5054914;28;20086;-87
2024/02/27 10:01:15;;;;;;;17.58;13.25;;;5.50;99.90;;;;;;5057551;28;20049;-87
2024/02/27 10:03:45;;;;;;;18.27;13.85;;;5.50;99.90;;;;;;5063176;28;20103;-87
2024/02/27 10:06:17;;;;;;;17.92;13.80;;;5.60;99.90;;;;;;5057319;28;20017;-86
2024/02/27 10:08:50;;;;;;;16.58;12.77;;;5.60;99.90;;;;;;5054999;28;20051;-87
2024/02/27 10:11:18;;;;;;;16.73;12.60;;;5.60;99.90;;;;;;5055070;28;20090;-88
2024/02/27 10:13:44;;;;;;;16.20;11.63;;;5.60;99.90;;;;;;5055726;28;20040;-87
2024/02/27 10:16:13;;;;;;;17.88;12.50;;;5.70;99.90;;;;;;5037386;28;20497;-87
2024/02/27 10:18:38;;;;;;;18.27;13.85;;;5.80;99.90;;;;;;5055323;28;20032;-86
2024/02/27 10:21:05;;;;;;;18.02;13.50;;;5.80;99.90;;;;;;5060540;28;20033;-86
2024/02/27 10:23:31;;;;;;;19.20;13.75;;;5.80;99.90;;;;;;5057311;28;20029;-86
2024/02/27 10:26:10;;;;;;;16.38;12.90;;;5.80;99.90;;;;;;5056592;28;20043;-87
2024/02/27 10:28:37;;;;;;;16.13;12.43;;;5.80;99.90;;;;;;5053760;28;20083;-87
2024/02/27 10:31:08;;;;;;;16.60;12.73;;;5.80;99.90;;;;;;5037008;28;20021;-87
2024/02/27 10:33:36;;;;;;;15.68;12.43;;;5.80;99.90;;;;;;5053440;28;20432;-86
2024/02/27 10:36:03;;;;;;;20.20;14.23;;;5.90;99.90;;;;;;5053593;28;20124;-86
2024/02/27 10:38:29;;;;;;;17.27;12.60;;;5.90;99.90;;;;;;5054019;28;20033;-87
2024/02/27 10:40:55;;;;;;;17.95;13.05;;;6.00;99.90;;;;;;5053469;28;20045;-88
2024/02/27 10:43:21;;;;;;;17.88;13.43;;;6.00;99.90;;;;;;5053713;28;20487;-87
2024/02/27 10:45:48;;;;;;;19.23;13.25;;;6.00;99.90;;;;;;5053910;28;20017;-88
2024/02/27 10:48:15;;;;;;;20.75;14.27;;;6.10;99.90;;;;;;5041364;28;20358;-86
2024/02/27 10:50:44;;;;;;;21.48;14.65;;;6.10;99.90;;;;;;5057510;28;20118;-85
2024/02/27 10:53:11;;;;;;;18.17;14.07;;;6.10;99.90;;;;;;5057810;28;20053;-86
2024/02/27 10:55:37;;;;;;;19.75;14.90;;;6.20;99.90;;;;;;5057488;28;20028;-86
2024/02/27 10:58:04;;;;;;;19.27;13.82;;;6.10;99.90;;;;;;5057636;28;20484;-88
2024/02/27 11:00:29;;;;;;;18.35;13.93;;;6.20;99.90;;;;;;5057771;28;20068;-87
2024/02/27 11:02:57;;;;;;;17.40;13.25;;;6.20;99.90;;;;;;5058040;28;20025;-86
2024/02/27 11:05:25;;;;;;;17.98;14.68;;;6.30;99.90;;;;;;5057598;28;20068;-87
2024/02/27 11:07:54;;;;;;;18.45;13.73;;;6.30;99.90;;;;;;5061023;28;20037;-87
2024/02/27 11:10:21;;;;;;;18.15;13.48;;;6.30;99.90;;;;;;5081569;28;20025;-86
2024/02/27 11:12:50;;;;;;;17.63;13.25;;;6.30;99.90;;;;;;5080906;28;20013;-83
2024/02/27 11:15:20;;;;;;;17.30;13.32;;;6.40;99.90;;;;;;5080614;28;20045;-86
2024/02/27 11:17:53;;;;;;;18.30;14.30;;;6.40;99.90;;;;;;5046901;28;20021;-87
2024/02/27 11:20:20;;;;;;;16.75;12.85;;;6.40;99.90;;;;;;5058694;28;20080;-87
2024/02/27 11:22:46;;;;;;;16.80;12.70;;;6.50;99.90;;;;;;5057166;28;20090;-87
2024/02/27 11:25:12;;;;;;;16.00;12.70;;;6.70;99.90;;;;;;5056735;28;20120;-86
2024/02/27 11:27:39;;;;;;;17.13;13.43;;;6.60;99.90;;;;;;5056676;28;20033;-88
2024/02/27 11:30:07;;;;;;;17.80;13.75;;;6.60;99.90;;;;;;5057723;28;20041;-88
2024/02/27 11:32:34;;;;;;;17.23;13.45;;;6.70;99.90;;;;;;5056736;28;20033;-87
2024/02/27 11:35:01;;;;;;;19.80;13.77;;;6.70;99.90;;;;;;5057019;28;20029;-87
2024/02/27 11:37:47;;;;;;;19.20;13.98;;;6.80;99.90;;;;;;5056424;28;20017;-87
2024/02/27 11:40:47;;;;;;;18.20;13.75;;;6.90;99.90;;;;;;5057883;28;20025;-86
2024/02/27 11:43:14;;;;;;;18.23;13.07;;;6.80;99.90;;;;;;5055881;28;20083;-88
2024/02/27 11:45:40;;;;;;;17.13;13.57;;;6.80;99.90;;;;;;5039333;28;20025;-87
2024/02/27 11:48:09;;;;;;;16.38;12.85;;;6.90;99.90;;;;;;5055657;28;20070;-86
2024/02/27 11:50:34;;;;;;;16.92;13.63;;;6.90;99.90;;;;;;5055632;28;20324;-87
2024/02/27 11:53:20;;;;;;;16.35;13.15;;;6.90;99.90;;;;;;5055779;28;20381;-87
2024/02/27 11:55:48;;;;;;;16.38;13.68;;;6.90;99.90;;;;;;5055941;28;20025;-87
2024/02/27 11:58:14;;;;;;;18.15;13.90;;;7.00;99.90;;;;;;5054841;28;20025;-87
2024/02/27 12:00:43;;;;;;;18.30;13.52;;;7.10;99.90;;;;;;5055286;28;20032;-87
2024/02/27 12:03:09;;;;;;;19.42;13.68;;;6.90;99.90;;;;;;5055853;28;20021;-87
2024/02/27 12:05:35;;;;;;;18.52;13.82;;;7.00;99.90;;;;;;5038711;28;20033;-87
2024/02/27 12:08:01;;;;;;;16.70;12.93;;;7.00;99.90;;;;;;5055552;28;20028;-87
2024/02/27 12:10:27;;;;;;;20.98;13.57;;;7.00;99.90;;;;;;5055467;28;20033;-87
2024/02/27 12:12:52;;;;;;;16.48;13.13;;;7.00;99.90;;;;;;5055544;28;20036;-85
2024/02/27 12:15:19;;;;;;;17.45;13.85;;;7.00;99.90;;;;;;5055681;28;20045;-86
2024/02/27 12:17:44;;;;;;;19.30;14.63;;;7.20;99.90;;;;;;5055734;28;20029;-86
2024/02/27 12:20:11;;;;;;;16.15;13.52;;;7.10;99.90;;;;;;5055857;28;20036;-86
2024/02/27 12:22:39;;;;;;;18.67;14.38;;;7.10;99.90;;;;;;5056094;28;20036;-85
2024/02/27 12:25:06;;;;;;;18.75;15.05;;;7.10;99.90;;;;;;5059957;28;20070;-86
2024/02/27 12:27:32;;;;;;;17.98;13.98;;;7.00;99.90;;;;;;5061936;28;20028;-86
2024/02/27 12:30:00;;;;;;;16.33;13.10;;;7.10;99.90;;;;;;5060719;28;20076;-86
2024/02/27 12:32:26;;;;;;;19.50;14.93;;;7.10;99.90;;;;;;5064105;28;20096;-84
2024/02/27 12:34:51;;;;;;;17.48;13.88;;;7.10;99.90;;;;;;5078950;28;20013;-87
2024/02/27 12:37:18;;;;;;;17.20;13.85;;;7.10;99.90;;;;;;5078841;28;20001;-86